Kingston Springs, Tennessee
Current Conditions -  °F | °C
As of 8:53 PM on Sunday 21 Dec 2014 (Local Time) from KBNA Reporting Station
Scattered Clouds Scattered Clouds  
Wind Chill: 43°   Ceiling: Unl
Heat Index: 45°   Visibility: 10mi
Dew Point: 37°   Wind: 5mph
Humidity: 74%   Direction: 130°SE
Pressure: 30.05"   Gusts: NA
Location:  36.1°N, 87.12°W
Report Text: KBNA 220253Z 13004KT 10SM SCT048 07/03 A3005 RMK AO2 SLP176 T00720028 56012
Loading
Personal Weather Stations






























Interactive Weather Map New forecast layout! Learn more

10-Day Weather Forecast

Advertisements
Track Severe Weather on mobile